Time;durP1;ratioP1;P1;durP2;ratioP2;P2;SDS_P1;SDS_P2;PMS_P1;PMS_P2;Temp;Humidity;BMP_temperature;BMP_pressure;BME280_temperature;BME280_humidity;BME280_pressure;Samples;Min_cycle;Max_cycle;Signal;HPM_P1;HPM_P2
2023/04/23 00:01:15;;;;;;;0.00;0.00;;;;;;;10.38;76.90;99603.75;7337020;19;20022;-69
2023/04/23 00:03:42;;;;;;;0.00;0.00;;;;;;;10.38;76.71;99596.78;7336393;19;20010;-69
2023/04/23 00:06:11;;;;;;;0.00;0.00;;;;;;;10.38;76.75;99601.16;7336877;19;20015;-69
2023/04/23 00:08:40;;;;;;;0.10;0.10;;;;;;;10.39;76.87;99597.63;7333742;19;20007;-69
2023/04/23 00:11:07;;;;;;;0.00;0.00;;;;;;;10.38;76.69;99595.94;7334523;19;20011;-69
2023/04/23 00:13:33;;;;;;;0.00;0.00;;;;;;;10.36;76.82;99596.00;7337028;19;20040;-69
2023/04/23 00:15:59;;;;;;;0.00;0.00;;;;;;;10.25;76.92;99579.06;7339514;19;20018;-69
2023/04/23 00:18:24;;;;;;;0.00;0.00;;;;;;;10.33;76.78;99592.66;7337675;19;20035;-69
2023/04/23 00:20:50;;;;;;;0.00;0.00;;;;;;;10.29;76.84;99580.63;7335285;19;20014;-69
2023/04/23 00:23:16;;;;;;;0.00;0.00;;;;;;;10.27;76.81;99582.47;7338938;19;20456;-70
2023/04/23 00:25:41;;;;;;;0.00;0.00;;;;;;;10.30;77.00;99584.97;7337684;19;20146;-69
2023/04/23 00:28:06;;;;;;;0.00;0.00;;;;;;;10.33;76.92;99603.09;7333704;19;20023;-69
2023/04/23 00:30:32;;;;;;;0.00;0.00;;;;;;;10.30;76.74;99592.78;7336244;19;20014;-69
2023/04/23 00:32:58;;;;;;;0.00;0.00;;;;;;;10.31;77.05;99594.47;7335569;19;20027;-69
2023/04/23 00:35:23;;;;;;;0.00;0.00;;;;;;;10.31;76.89;99594.47;7335990;19;20041;-69
2023/04/23 00:37:48;;;;;;;0.00;0.00;;;;;;;10.27;76.97;99592.91;7337426;19;20017;-69
2023/04/23 00:40:14;;;;;;;0.00;0.00;;;;;;;10.27;76.98;99588.53;7333785;19;20010;-69
2023/04/23 00:42:40;;;;;;;0.00;0.00;;;;;;;10.26;77.08;99586.00;7335383;19;20018;-69
2023/04/23 00:45:11;;;;;;;0.00;0.00;;;;;;;10.28;76.89;99589.38;7337165;19;20010;-69
2023/04/23 00:47:36;;;;;;;0.00;0.00;;;;;;;10.28;76.64;99591.97;7337448;19;20880;-69
2023/04/23 00:50:02;;;;;;;0.00;0.00;;;;;;;10.27;76.75;99592.91;7339166;19;20062;-69
2023/04/23 00:52:28;;;;;;;0.00;0.00;;;;;;;10.26;76.77;99602.50;7335103;19;20010;-69
2023/04/23 00:54:54;;;;;;;0.00;0.00;;;;;;;10.24;76.63;99590.41;7337012;19;20006;-69
2023/04/23 00:57:21;;;;;;;0.00;0.00;;;;;;;10.22;76.50;99589.59;7337539;19;20009;-69
2023/04/23 00:59:47;;;;;;;0.00;0.00;;;;;;;10.19;76.61;99580.13;7335458;19;20925;-68
2023/04/23 01:02:13;;;;;;;0.00;0.00;;;;;;;10.17;77.00;99578.47;7336386;19;20019;-69
2023/04/23 01:04:40;;;;;;;0.00;0.00;;;;;;;10.08;76.97;99561.41;7337356;19;20033;-68
2023/04/23 01:07:06;;;;;;;;;;;;;;;10.18;75.46;99572.34;7338973;19;20086;-69
2023/04/23 01:09:32;;;;;;;0.00;0.00;;;;;;;10.12;76.64;99571.69;7332790;19;19947;-69
2023/04/23 01:11:58;;;;;;;0.00;0.00;;;;;;;10.11;76.83;99577.81;7335260;19;20298;-69
2023/04/23 01:14:25;;;;;;;0.00;0.00;;;;;;;10.09;76.74;99570.97;7333833;19;20078;-69
2023/04/23 01:16:51;;;;;;;0.00;0.00;;;;;;;10.06;77.17;99571.91;7333750;19;20018;-69
2023/04/23 01:19:17;;;;;;;0.00;0.00;;;;;;;9.92;76.88;99550.72;7333067;19;20043;-69
2023/04/23 01:21:42;;;;;;;0.00;0.00;;;;;;;9.91;77.09;99551.66;7339053;19;20938;-69
2023/04/23 01:24:09;;;;;;;0.00;0.00;;;;;;;10.05;77.21;99575.44;7336323;19;20026;-69
2023/04/23 01:26:34;;;;;;;0.00;0.00;;;;;;;9.95;77.29;99560.22;7328696;19;20015;-70
2023/04/23 01:29:00;;;;;;;0.00;0.00;;;;;;;9.91;76.99;99559.47;7337189;19;20827;-69
2023/04/23 01:31:29;;;;;;;0.00;0.00;;;;;;;10.05;76.92;99577.22;7331252;19;20014;-69
2023/04/23 01:33:55;;;;;;;0.03;0.03;;;;;;;9.92;77.10;99561.16;7334863;19;20014;-69
2023/04/23 01:36:24;;;;;;;0.00;0.00;;;;;;;10.03;76.81;99574.63;7333906;19;22933;-69
2023/04/23 01:38:50;;;;;;;0.00;0.00;;;;;;;10.02;77.09;99577.31;7337121;19;20045;-68
2023/04/23 01:41:15;;;;;;;0.00;0.00;;;;;;;10.00;76.88;99573.94;7332528;19;20873;-69
2023/04/23 01:43:42;;;;;;;0.00;0.00;;;;;;;9.98;77.31;99576.56;7334212;19;20842;-69
2023/04/23 01:46:08;;;;;;;0.00;0.00;;;;;;;9.97;76.68;99579.25;7334071;19;20030;-68
2023/04/23 01:48:34;;;;;;;0.00;0.00;;;;;;;9.95;77.02;99581.91;7334455;19;20038;-69
2023/04/23 01:51:00;;;;;;;0.00;0.00;;;;;;;9.93;77.00;99578.50;7336343;19;20018;-68
2023/04/23 01:53:25;;;;;;;0.00;0.00;;;;;;;9.90;77.20;99585.63;7336962;19;20035;-69
2023/04/23 01:55:51;;;;;;;0.00;0.00;;;;;;;9.73;76.99;99558.41;7335315;19;20042;-69
2023/04/23 01:58:18;;;;;;;0.00;0.00;;;;;;;9.81;77.09;99578.97;7330286;19;20015;-69
2023/04/23 02:00:43;;;;;;;0.00;0.00;;;;;;;9.82;76.88;99586.72;7350225;19;20111;-69
2023/04/23 02:03:08;;;;;;;0.00;0.00;;;;;;;9.79;77.35;99580.81;7345173;19;20022;-69
2023/04/23 02:05:35;;;;;;;0.00;0.00;;;;;;;9.79;77.16;99583.41;7348076;19;20463;-66
2023/04/23 02:08:02;;;;;;;0.00;0.00;;;;;;;9.77;77.48;99575.63;7345317;19;20010;-69
2023/04/23 02:10:28;;;;;;;0.00;0.00;;;;;;;9.76;76.97;99570.47;7350260;19;20840;-69
2023/04/23 02:12:53;;;;;;;0.00;0.00;;;;;;;9.62;77.15;99558.78;7348418;19;20015;-69
2023/04/23 02:15:20;;;;;;;0.00;0.00;;;;;;;9.74;77.43;99583.56;7349600;19;20315;-68
2023/04/23 02:17:45;;;;;;;0.00;0.00;;;;;;;9.67;77.16;99569.06;7350918;19;20486;-69
2023/04/23 02:20:11;;;;;;;0.00;0.00;;;;;;;9.73;77.41;99581.00;7349558;19;20018;-68
2023/04/23 02:22:38;;;;;;;0.00;0.00;;;;;;;9.72;77.45;99587.13;7350126;19;20742;-68
2023/04/23 02:25:06;;;;;;;0.00;0.00;;;;;;;9.71;77.04;99582.84;7349040;19;20514;-69
2023/04/23 02:27:32;;;;;;;0.00;0.00;;;;;;;9.69;77.05;99575.09;7349390;19;20393;-69
2023/04/23 02:29:57;;;;;;;0.00;0.00;;;;;;;9.68;77.08;99582.94;7351177;19;20014;-69
2023/04/23 02:32:23;;;;;;;0.00;0.00;;;;;;;9.67;77.37;99581.25;7350214;19;20025;-69
2023/04/23 02:34:48;;;;;;;0.00;0.00;;;;;;;9.65;77.10;99589.13;7351355;19;20006;-68
2023/04/23 02:37:14;;;;;;;0.00;0.00;;;;;;;9.64;77.22;99576.16;7348581;19;20010;-68
2023/04/23 02:39:39;;;;;;;0.00;0.00;;;;;;;9.64;76.98;99586.59;7347894;19;20070;-69
2023/04/23 02:42:05;;;;;;;0.00;0.00;;;;;;;9.54;77.49;99576.50;7349270;19;20074;-68
2023/04/23 02:44:30;;;;;;;0.00;0.00;;;;;;;9.59;77.48;99582.38;7350056;19;20018;-69
2023/04/23 02:46:56;;;;;;;0.00;0.00;;;;;;;9.58;77.34;99583.28;7351034;19;20030;-67
2023/04/23 02:49:21;;;;;;;0.00;0.00;;;;;;;9.56;77.58;99587.69;7348760;19;20139;-69
2023/04/23 02:51:46;;;;;;;0.00;0.00;;;;;;;9.55;77.06;99593.81;7348415;19;20037;-69
2023/04/23 02:54:12;;;;;;;0.00;0.00;;;;;;;9.53;77.19;99590.44;7349336;19;20010;-69
2023/04/23 02:56:38;;;;;;;0.00;0.00;;;;;;;9.51;77.17;99594.84;7352788;19;20011;-69
2023/04/23 02:59:05;;;;;;;0.00;0.00;;;;;;;9.50;77.48;99593.13;7345996;19;20014;-69
2023/04/23 03:01:30;;;;;;;0.00;0.00;;;;;;;9.49;77.39;99588.84;7346419;19;20145;-66
2023/04/23 03:03:56;;;;;;;0.00;0.00;;;;;;;9.35;77.44;99568.47;7322866;19;20066;-69
2023/04/23 03:06:22;;;;;;;0.00;0.00;;;;;;;9.48;77.35;99592.34;7351454;19;20054;-66
2023/04/23 03:08:47;;;;;;;0.00;0.00;;;;;;;9.46;77.17;99594.16;7348554;19;19998;-69
2023/04/23 03:11:12;;;;;;;0.00;0.00;;;;;;;9.46;77.58;99596.75;7347342;19;20037;-69
2023/04/23 03:13:38;;;;;;;0.05;0.05;;;;;;;9.44;77.27;99595.97;7349752;19;20023;-69
2023/04/23 03:16:03;;;;;;;0.00;0.00;;;;;;;9.44;77.57;99593.38;7345529;19;20014;-69
2023/04/23 03:18:29;;;;;;;0.00;0.00;;;;;;;9.47;77.17;99595.00;7334501;19;20006;-69
2023/04/23 03:20:55;;;;;;;0.00;0.00;;;;;;;9.48;77.21;99600.16;7353455;19;20017;-69
2023/04/23 03:23:20;;;;;;;0.00;0.00;;;;;;;9.47;77.33;99590.63;7350709;19;20134;-69
2023/04/23 03:25:45;;;;;;;0.00;0.00;;;;;;;9.48;77.53;99594.09;7354076;19;20027;-69
2023/04/23 03:28:11;;;;;;;0.00;0.00;;;;;;;9.37;77.68;99581.44;7353587;19;20018;-69
2023/04/23 03:30:37;;;;;;;0.00;0.00;;;;;;;9.49;77.40;99599.25;7351256;19;20023;-69
2023/04/23 03:33:02;;;;;;;0.00;0.00;;;;;;;9.50;77.41;99602.72;7353834;19;20039;-69
2023/04/23 03:35:27;;;;;;;0.00;0.00;;;;;;;9.41;77.32;99579.59;7354852;19;20657;-69
2023/04/23 03:37:53;;;;;;;0.00;0.00;;;;;;;9.51;77.25;99597.44;7350238;19;20318;-69
2023/04/23 03:40:20;;;;;;;0.00;0.00;;;;;;;9.52;77.17;99599.13;7354674;19;20002;-69
2023/04/23 03:42:45;;;;;;;0.00;0.00;;;;;;;9.51;77.02;99592.22;7342921;19;20749;-69
2023/04/23 03:45:12;;;;;;;0.00;0.00;;;;;;;9.51;77.14;99592.22;7353947;19;20043;-69
2023/04/23 03:47:38;;;;;;;0.00;0.00;;;;;;;9.51;77.25;99600.03;7352238;19;20081;-69
2023/04/23 03:50:05;;;;;;;0.00;0.00;;;;;;;9.48;77.22;99592.34;7352317;19;21118;-69
2023/04/23 03:52:31;;;;;;;0.05;0.05;;;;;;;9.50;77.12;99600.97;7348938;19;20520;-69
2023/04/23 03:54:56;;;;;;;0.00;0.00;;;;;;;9.37;77.32;99571.00;7350656;19;20018;-69
2023/04/23 03:57:22;;;;;;;0.00;0.00;;;;;;;9.44;77.31;99588.16;7353346;19;20018;-69
2023/04/23 03:59:47;;;;;;;0.00;0.00;;;;;;;9.49;77.24;99598.41;7349640;19;20053;-70
2023/04/23 04:02:13;;;;;;;0.00;0.00;;;;;;;9.48;77.20;99602.78;7352450;19;20106;-69
2023/04/23 04:04:38;;;;;;;0.00;0.00;;;;;;;9.46;77.15;99599.34;7352793;19;20643;-69
2023/04/23 04:07:06;;;;;;;0.08;0.08;;;;;;;9.43;77.03;99602.09;7353293;19;20019;-68
2023/04/23 04:09:31;;;;;;;;;;;;;;;9.46;75.95;99604.56;7359010;19;20013;-69
2023/04/23 04:11:56;;;;;;;0.00;0.00;;;;;;;9.28;76.56;99579.19;7356925;19;19922;-69
2023/04/23 04:14:22;;;;;;;0.00;0.00;;;;;;;9.33;76.55;99592.91;7356065;19;20026;-69
2023/04/23 04:16:48;;;;;;;0.00;0.00;;;;;;;9.22;76.65;99579.38;7362069;19;20471;-69
2023/04/23 04:19:13;;;;;;;0.00;0.00;;;;;;;9.31;76.89;99607.72;7360185;19;20023;-69
2023/04/23 04:21:38;;;;;;;0.00;0.00;;;;;;;9.26;76.81;99600.06;7354050;19;20538;-69
2023/04/23 04:24:04;;;;;;;0.00;0.00;;;;;;;9.23;76.87;99607.16;7359729;19;20546;-69
2023/04/23 04:26:33;;;;;;;0.00;0.00;;;;;;;9.19;77.02;99608.16;7358532;19;20021;-69
2023/04/23 04:29:00;;;;;;;0.00;0.00;;;;;;;9.17;77.24;99607.34;7352882;19;20029;-68
2023/04/23 04:31:27;;;;;;;0.00;0.00;;;;;;;9.08;77.06;99596.34;7359027;19;20011;-69
2023/04/23 04:33:54;;;;;;;0.00;0.00;;;;;;;9.11;77.52;99608.41;7350598;19;20049;-69
2023/04/23 04:36:20;;;;;;;0.00;0.00;;;;;;;9.08;77.54;99608.53;7359153;19;21150;-68
2023/04/23 04:38:45;;;;;;;0.00;0.00;;;;;;;8.97;77.35;99590.66;7354777;19;20013;-69
2023/04/23 04:41:12;;;;;;;0.00;0.00;;;;;;;9.04;77.52;99606.91;7357156;19;20042;-67
2023/04/23 04:43:37;;;;;;;0.00;0.00;;;;;;;9.05;77.45;99599.03;7354316;19;20506;-69
2023/04/23 04:46:04;;;;;;;0.08;0.08;;;;;;;9.04;77.47;99609.53;7358332;19;20018;-68
2023/04/23 04:48:29;;;;;;;0.10;0.10;;;;;;;9.03;77.26;99606.06;7356989;19;20629;-70
2023/04/23 04:50:55;;;;;;;0.00;0.00;;;;;;;9.03;77.64;99613.88;7356294;19;20026;-69
2023/04/23 04:53:21;;;;;;;0.00;0.00;;;;;;;9.02;77.47;99612.19;7351029;19;20657;-69
2023/04/23 04:55:46;;;;;;;0.00;0.00;;;;;;;8.88;77.70;99585.75;7358962;19;20014;-69
2023/04/23 04:58:11;;;;;;;0.00;0.00;;;;;;;8.99;77.71;99609.69;7360565;19;20011;-70
2023/04/23 05:00:37;;;;;;;0.00;0.00;;;;;;;9.02;77.37;99612.19;7353682;19;20010;-68
2023/04/23 05:03:03;;;;;;;0.00;0.00;;;;;;;9.00;77.59;99615.72;7354200;19;20107;-69
2023/04/23 05:05:28;;;;;;;0.00;0.00;;;;;;;8.93;77.45;99607.28;7357338;19;20803;-65
2023/04/23 05:07:54;;;;;;;0.10;0.10;;;;;;;9.00;77.74;99613.97;7353166;19;20565;-69
2023/04/23 05:10:20;;;;;;;0.00;0.00;;;;;;;8.99;77.67;99614.88;7358395;19;20035;-69
2023/04/23 05:12:46;;;;;;;0.00;0.00;;;;;;;8.93;77.43;99607.28;7356428;19;20018;-68
2023/04/23 05:15:13;;;;;;;0.00;0.00;;;;;;;8.99;77.68;99621.84;7354884;19;20025;-69
2023/04/23 05:17:39;;;;;;;0.00;0.00;;;;;;;8.97;77.62;99614.09;7353939;19;20667;-69
2023/04/23 05:20:07;;;;;;;0.00;0.00;;;;;;;8.95;77.29;99628.91;7355945;19;20713;-65
2023/04/23 05:22:32;;;;;;;0.00;0.00;;;;;;;8.93;77.22;99625.50;7358766;19;20015;-68
2023/04/23 05:24:57;;;;;;;0.00;0.00;;;;;;;8.91;77.05;99621.25;7357078;19;20018;-68
2023/04/23 05:27:23;;;;;;;0.00;0.00;;;;;;;8.89;77.33;99634.31;7356260;19;20026;-68
2023/04/23 05:29:49;;;;;;;0.05;0.05;;;;;;;8.73;77.26;99607.09;7355477;19;20024;-68
2023/04/23 05:32:14;;;;;;;0.05;0.05;;;;;;;8.82;77.28;99630.22;7357368;19;20019;-68
2023/04/23 05:34:40;;;;;;;0.00;0.00;;;;;;;8.62;77.36;99601.38;7354463;19;20299;-69
2023/04/23 05:37:05;;;;;;;0.00;0.00;;;;;;;8.67;77.54;99612.47;7351456;19;20833;-69
2023/04/23 05:39:31;;;;;;;0.00;0.00;;;;;;;8.75;77.18;99626.09;7355862;19;20020;-68
2023/04/23 05:41:57;;;;;;;0.00;0.00;;;;;;;8.72;77.47;99628.81;7353431;19;20820;-69
2023/04/23 05:44:22;;;;;;;0.00;0.00;;;;;;;8.68;77.21;99635.03;7352516;19;20490;-68
2023/04/23 05:46:48;;;;;;;0.00;0.00;;;;;;;8.46;77.32;99609.66;7355326;19;20050;-68
2023/04/23 05:49:13;;;;;;;0.00;0.00;;;;;;;8.60;77.53;99637.00;7355030;19;20014;-68
2023/04/23 05:51:39;;;;;;;0.00;0.00;;;;;;;8.43;77.40;99619.34;7355489;19;20447;-68
2023/04/23 05:54:04;;;;;;;0.00;0.00;;;;;;;8.56;77.43;99642.28;7355273;19;20049;-68
2023/04/23 05:56:29;;;;;;;0.00;0.00;;;;;;;8.53;77.33;99637.19;7351167;19;20018;-68
2023/04/23 05:58:55;;;;;;;0.00;0.00;;;;;;;8.52;77.45;99639.88;7341654;19;20030;-69
2023/04/23 06:01:20;;;;;;;0.00;0.00;;;;;;;8.43;77.48;99625.38;7352383;19;20018;-69
2023/04/23 06:03:46;;;;;;;0.00;0.00;;;;;;;8.46;77.35;99634.81;7353643;19;20381;-69
2023/04/23 06:06:12;;;;;;;0.00;0.00;;;;;;;8.44;77.54;99637.47;7353695;19;20715;-68
2023/04/23 06:08:38;;;;;;;0.10;0.10;;;;;;;8.43;77.37;99635.78;7353791;19;20035;-69
2023/04/23 06:11:04;;;;;;;0.00;0.00;;;;;;;8.42;77.60;99635.84;7354067;19;20014;-68
2023/04/23 06:13:30;;;;;;;0.00;0.00;;;;;;;8.41;77.81;99637.56;7351473;19;20015;-68
2023/04/23 06:15:56;;;;;;;0.00;0.00;;;;;;;8.39;77.86;99636.78;7352816;19;20025;-69
2023/04/23 06:18:21;;;;;;;0.00;0.00;;;;;;;8.31;77.81;99626.59;7351105;19;20019;-69
2023/04/23 06:20:47;;;;;;;0.00;0.00;;;;;;;8.39;77.84;99639.38;7353669;19;20016;-68
2023/04/23 06:23:13;;;;;;;0.00;0.00;;;;;;;8.40;77.64;99646.28;7346818;19;20479;-68
2023/04/23 06:25:39;;;;;;;0.10;0.10;;;;;;;8.40;77.81;99648.88;7353442;19;20002;-68
2023/04/23 06:28:05;;;;;;;0.00;0.00;;;;;;;8.41;77.90;99652.31;7352315;19;20041;-68
2023/04/23 06:30:30;;;;;;;0.00;0.00;;;;;;;8.42;77.93;99654.06;7348447;19;20010;-69
2023/04/23 06:32:56;;;;;;;0.03;0.03;;;;;;;8.30;77.48;99635.25;7348337;19;20023;-68
2023/04/23 06:35:21;;;;;;;0.00;0.00;;;;;;;8.45;77.70;99660.00;7352747;19;20019;-69
2023/04/23 06:37:47;;;;;;;0.00;0.00;;;;;;;8.46;77.76;99655.63;7352181;19;20114;-65
2023/04/23 06:40:13;;;;;;;0.00;0.00;;;;;;;8.49;77.57;99650.34;7342950;19;20006;-68
2023/04/23 06:42:38;;;;;;;0.00;0.00;;;;;;;8.51;77.63;99659.81;7349418;19;20051;-68
2023/04/23 06:45:04;;;;;;;0.00;0.00;;;;;;;8.54;77.65;99666.69;7353475;19;20015;-68
2023/04/23 06:47:30;;;;;;;0.00;0.00;;;;;;;8.57;77.62;99675.25;7353877;19;20026;-68
2023/04/23 06:49:59;;;;;;;0.00;0.00;;;;;;;8.60;77.84;99673.44;7350706;19;20018;-69
2023/04/23 06:52:25;;;;;;;0.00;0.00;;;;;;;8.63;77.80;99678.56;7351402;19;20107;-68
2023/04/23 06:54:50;;;;;;;0.00;0.00;;;;;;;8.65;77.44;99680.19;7351331;19;20010;-69
2023/04/23 06:57:16;;;;;;;0.00;0.00;;;;;;;8.70;77.79;99685.25;7352861;19;20014;-69
2023/04/23 06:59:42;;;;;;;0.00;0.00;;;;;;;8.72;77.39;99684.34;7332062;19;20127;-69
2023/04/23 07:02:07;;;;;;;0.00;0.00;;;;;;;8.74;77.35;99681.66;7351248;19;20026;-68
2023/04/23 07:04:32;;;;;;;0.00;0.00;;;;;;;8.78;77.31;99688.50;7351217;19;20803;-68
2023/04/23 07:06:59;;;;;;;0.00;0.00;;;;;;;8.82;77.52;99696.16;7350837;19;20022;-69
2023/04/23 07:09:25;;;;;;;0.00;0.00;;;;;;;8.88;77.24;99700.31;7352365;19;20018;-68
2023/04/23 07:11:51;;;;;;;0.00;0.00;;;;;;;8.92;77.02;99696.72;7353726;19;20675;-68
2023/04/23 07:14:16;;;;;;;0.00;0.00;;;;;;;8.96;76.90;99693.09;7351963;19;21057;-68
2023/04/23 07:16:42;;;;;;;0.00;0.00;;;;;;;8.95;76.96;99691.38;7353205;19;20534;-68
2023/04/23 07:19:07;;;;;;;0.00;0.00;;;;;;;9.02;77.26;99698.13;7346107;19;20031;-68
2023/04/23 07:21:33;;;;;;;0.00;0.00;;;;;;;9.07;77.02;99696.22;7351479;19;20023;-68
2023/04/23 07:24:07;;;;;;;0.00;0.00;;;;;;;9.13;76.62;99694.31;7351353;19;20026;-69
2023/04/23 07:26:34;;;;;;;0.00;0.00;;;;;;;9.16;76.86;99697.66;7351017;19;20022;-68
2023/04/23 07:29:00;;;;;;;0.00;0.00;;;;;;;9.21;77.07;99697.50;7351545;19;20038;-67
2023/04/23 07:31:26;;;;;;;0.00;0.00;;;;;;;9.25;76.61;99699.13;7347086;19;20475;-68
2023/04/23 07:33:51;;;;;;;0.08;0.08;;;;;;;9.29;76.84;99700.72;7347867;19;20479;-69
2023/04/23 07:36:17;;;;;;;0.00;0.00;;;;;;;9.01;76.58;99641.72;7351251;19;20348;-69
2023/04/23 07:38:42;;;;;;;0.00;0.00;;;;;;;9.39;76.69;99696.91;7342402;19;20014;-69
2023/04/23 07:41:08;;;;;;;0.00;0.00;;;;;;;9.38;76.42;99690.00;7352822;19;20074;-68
2023/04/23 07:43:33;;;;;;;0.00;0.00;;;;;;;9.42;77.03;99694.16;7351884;19;20030;-69
2023/04/23 07:45:58;;;;;;;0.00;0.00;;;;;;;9.53;76.42;99702.50;7359206;19;20133;-69
2023/04/23 07:48:24;;;;;;;0.00;0.00;;;;;;;9.58;76.34;99703.19;7355681;19;20491;-69
2023/04/23 07:50:50;;;;;;;0.03;0.03;;;;;;;9.63;76.46;99703.03;7359202;19;20030;-69
2023/04/23 07:53:15;;;;;;;0.00;0.00;;;;;;;9.68;76.46;99708.06;7355992;19;20011;-69
2023/04/23 07:55:41;;;;;;;0.00;0.00;;;;;;;9.69;76.35;99708.03;7354070;19;21207;-68
2023/04/23 07:58:06;;;;;;;0.00;0.00;;;;;;;9.79;76.02;99717.22;7350524;19;20482;-68
2023/04/23 08:00:32;;;;;;;0.00;0.00;;;;;;;9.83;75.97;99712.72;7356577;19;20034;-69
2023/04/23 08:02:58;;;;;;;0.00;0.00;;;;;;;9.81;76.07;99702.38;7352611;19;20022;-69
2023/04/23 08:05:25;;;;;;;0.00;0.00;;;;;;;9.97;76.42;99720.91;7358849;19;20022;-68
2023/04/23 08:07:50;;;;;;;0.00;0.00;;;;;;;10.04;76.07;99717.22;7356110;19;20011;-69
2023/04/23 08:10:16;;;;;;;0.10;0.10;;;;;;;10.08;75.82;99718.78;7355496;19;20021;-68
2023/04/23 08:12:41;;;;;;;0.00;0.00;;;;;;;10.15;75.95;99719.41;7358949;19;20014;-69
2023/04/23 08:15:07;;;;;;;0.00;0.00;;;;;;;10.21;75.80;99723.56;7357177;19;20021;-69
2023/04/23 08:17:32;;;;;;;0.00;0.00;;;;;;;10.25;75.87;99719.97;7345594;19;20339;-69
2023/04/23 08:19:58;;;;;;;0.00;0.00;;;;;;;10.32;75.54;99721.44;7321800;19;20006;-68
2023/04/23 08:22:23;;;;;;;0.00;0.00;;;;;;;10.37;75.34;99725.56;7348615;19;20013;-69
2023/04/23 08:24:48;;;;;;;0.00;0.00;;;;;;;10.44;75.43;99726.22;7346684;19;20006;-69
2023/04/23 08:27:14;;;;;;;0.10;0.10;;;;;;;10.49;75.20;99720.78;7348571;19;20661;-69
2023/04/23 08:29:39;;;;;;;0.00;0.00;;;;;;;10.55;75.19;99724.03;7347403;19;20031;-69
2023/04/23 08:32:05;;;;;;;0.00;0.00;;;;;;;10.62;75.33;99730.72;7353218;19;20533;-69
2023/04/23 08:34:30;;;;;;;0.05;0.05;;;;;;;10.64;75.08;99728.91;7353462;19;20006;-69
2023/04/23 08:36:55;;;;;;;0.00;0.00;;;;;;;10.76;75.26;99721.50;7356759;19;20003;-69
2023/04/23 08:39:21;;;;;;;0.00;0.00;;;;;;;10.85;74.89;99718.53;7354144;19;20003;-68
2023/04/23 08:41:53;;;;;;;0.00;0.00;;;;;;;10.97;74.96;99725.88;7351089;19;20479;-69
2023/04/23 08:44:22;;;;;;;0.00;0.00;;;;;;;11.07;74.86;99721.13;7356697;19;20817;-69
2023/04/23 08:46:48;;;;;;;0.03;0.03;;;;;;;11.09;74.64;99716.69;7355025;19;20031;-69
2023/04/23 08:49:15;;;;;;;0.00;0.00;;;;;;;11.28;74.84;99722.88;7356703;19;20015;-69
2023/04/23 08:51:49;;;;;;;0.00;0.00;;;;;;;11.45;74.66;99730.00;7356584;19;20369;-69
2023/04/23 08:54:20;;;;;;;0.00;0.00;;;;;;;11.63;74.16;99731.84;7354821;19;20034;-70
2023/04/23 08:56:48;;;;;;;0.00;0.00;;;;;;;11.83;74.38;99728.41;7356074;19;20035;-69
2023/04/23 08:59:14;;;;;;;0.00;0.00;;;;;;;12.07;73.63;99731.72;7351954;19;20017;-69
2023/04/23 09:01:40;;;;;;;0.00;0.00;;;;;;;12.31;73.73;99726.28;7339690;19;20022;-70
2023/04/23 09:04:07;;;;;;;0.00;0.00;;;;;;;12.60;72.79;99736.28;7355287;19;20018;-70
2023/04/23 09:06:33;;;;;;;0.07;0.07;;;;;;;12.84;72.44;99730.81;7341043;19;20336;-69
2023/04/23 09:08:59;;;;;;;0.10;0.10;;;;;;;12.97;72.23;99731.91;7358152;19;20475;-69
2023/04/23 09:11:27;;;;;;;0.00;0.00;;;;;;;13.23;72.13;99742.06;7360400;19;20379;-69
2023/04/23 09:13:55;;;;;;;0.00;0.00;;;;;;;13.32;71.91;99745.13;7351796;19;20014;-69
2023/04/23 09:16:21;;;;;;;0.00;0.00;;;;;;;13.39;71.96;99736.06;7356419;19;20006;-69
2023/04/23 09:18:46;;;;;;;0.00;0.00;;;;;;;13.39;71.65;99726.41;7356592;19;21185;-69
2023/04/23 09:21:13;;;;;;;0.00;0.00;;;;;;;13.47;71.79;99734.72;7355364;19;20497;-69
2023/04/23 09:23:40;;;;;;;0.03;0.03;;;;;;;13.57;71.83;99732.47;7359511;19;20018;-69
2023/04/23 09:26:06;;;;;;;0.05;0.05;;;;;;;13.70;71.85;99737.97;7354689;19;20030;-69
2023/04/23 09:28:35;;;;;;;0.10;0.10;;;;;;;13.97;71.85;99749.66;7357876;19;20103;-69
2023/04/23 09:31:01;;;;;;;0.10;0.10;;;;;;;14.11;71.30;99751.59;7352585;19;20006;-69
2023/04/23 09:33:27;;;;;;;0.00;0.00;;;;;;;14.31;71.24;99760.19;7360283;19;20013;-69
2023/04/23 09:35:52;;;;;;;0.00;0.00;;;;;;;14.45;70.84;99750.66;7350791;19;20006;-69
2023/04/23 09:38:19;;;;;;;0.00;0.00;;;;;;;14.60;70.91;99754.25;7346663;19;20033;-69
2023/04/23 09:40:44;;;;;;;0.00;0.00;;;;;;;14.73;70.48;99759.69;7357692;19;20050;-69
2023/04/23 09:43:10;;;;;;;0.00;0.00;;;;;;;14.96;69.99;99761.06;7353524;19;20428;-69
2023/04/23 09:45:36;;;;;;;0.08;0.08;;;;;;;15.08;70.24;99770.88;7349542;19;20021;-69
2023/04/23 09:48:02;;;;;;;0.10;0.10;;;;;;;15.24;70.15;99771.69;7354261;19;20011;-69
2023/04/23 09:50:37;;;;;;;0.10;0.10;;;;;;;15.46;69.48;99770.47;7355809;19;20007;-69
2023/04/23 09:53:04;;;;;;;0.00;0.00;;;;;;;15.54;69.28;99776.13;7349576;19;20010;-69
2023/04/23 09:55:36;;;;;;;0.00;0.00;;;;;;;15.63;68.90;99773.00;7357804;19;20030;-69
2023/04/23 09:58:12;;;;;;;0.10;0.10;;;;;;;15.70;69.35;99768.22;7355328;19;20497;-68
2023/04/23 10:00:38;;;;;;;0.00;0.00;;;;;;;15.56;69.30;99755.84;7360118;19;20040;-69
2023/04/23 10:03:06;;;;;;;0.10;0.10;;;;;;;15.75;69.65;99777.53;7352476;19;20014;-69
2023/04/23 10:05:37;;;;;;;0.10;0.10;;;;;;;15.78;69.29;99744.94;7356350;19;20007;-69
2023/04/23 10:08:05;;;;;;;0.10;0.10;;;;;;;15.98;68.88;99767.44;7354975;19;20668;-69
2023/04/23 10:10:31;;;;;;;0.00;0.00;;;;;;;16.14;69.15;99778.75;7356919;19;20034;-68
2023/04/23 10:12:58;;;;;;;0.00;0.00;;;;;;;16.17;68.57;99780.34;7354792;19;20078;-69
2023/04/23 10:15:25;;;;;;;0.10;0.10;;;;;;;16.19;68.65;99781.09;7338253;19;20023;-68
2023/04/23 10:17:52;;;;;;;0.10;0.10;;;;;;;16.12;68.87;99780.66;7354987;19;20022;-69
2023/04/23 10:20:20;;;;;;;0.10;0.10;;;;;;;15.94;69.28;99750.13;7357608;19;21981;-68
2023/04/23 10:22:46;;;;;;;0.00;0.00;;;;;;;16.05;68.88;99787.19;7353290;19;20463;-69
2023/04/23 10:25:12;;;;;;;0.10;0.10;;;;;;;15.92;69.17;99775.72;7354650;19;20028;-69
2023/04/23 10:27:40;;;;;;;0.10;0.10;;;;;;;15.88;69.47;99782.94;7349593;19;20074;-68
2023/04/23 10:30:07;;;;;;;0.00;0.00;;;;;;;15.82;69.54;99793.84;7350708;19;20006;-69
2023/04/23 10:32:33;;;;;;;0.00;0.00;;;;;;;15.80;69.71;99795.69;7353312;19;20363;-68
2023/04/23 10:34:59;;;;;;;0.10;0.10;;;;;;;15.68;70.13;99792.00;7356419;19;20018;-68
2023/04/23 10:37:24;;;;;;;0.00;0.00;;;;;;;15.68;70.32;99799.06;7348182;19;20011;-68
2023/04/23 10:39:55;;;;;;;0.08;0.08;;;;;;;15.72;70.48;99804.06;7353602;19;20014;-68
2023/04/23 10:42:21;;;;;;;0.10;0.10;;;;;;;15.61;70.42;99790.63;7351043;19;20045;-68
2023/04/23 10:44:47;;;;;;;0.00;0.00;;;;;;;15.74;70.61;99810.06;7351700;19;20475;-65
2023/04/23 10:47:16;;;;;;;0.10;0.10;;;;;;;15.87;70.57;99807.59;7344203;19;20017;-68
2023/04/23 10:49:42;;;;;;;0.10;0.10;;;;;;;15.87;70.35;99810.22;7351990;19;20082;-68
2023/04/23 10:52:16;;;;;;;0.00;0.00;;;;;;;15.95;70.01;99815.88;7357347;19;20058;-69
2023/04/23 10:54:55;;;;;;;0.10;0.10;;;;;;;15.93;70.08;99817.75;7355804;19;20844;-68
2023/04/23 10:57:20;;;;;;;0.03;0.03;;;;;;;15.93;70.54;99824.81;7355250;19;20021;-69
2023/04/23 10:59:55;;;;;;;0.03;0.03;;;;;;;16.01;70.03;99817.28;7350825;19;20010;-68
2023/04/23 11:02:23;;;;;;;0.10;0.10;;;;;;;16.02;70.48;99821.63;7354115;19;20033;-68
2023/04/23 11:04:56;;;;;;;0.10;0.10;;;;;;;16.09;70.53;99821.16;7355766;19;20726;-68
2023/04/23 11:07:31;;;;;;;0.10;0.10;;;;;;;16.16;70.19;99824.28;7352567;19;20791;-68
2023/04/23 11:10:10;;;;;;;0.10;0.10;;;;;;;16.28;69.97;99834.09;7352289;19;20033;-68
2023/04/23 11:12:38;;;;;;;0.08;0.08;;;;;;;16.37;70.30;99831.81;7355650;19;20123;-69
2023/04/23 11:15:12;;;;;;;0.00;0.00;;;;;;;16.52;70.63;99831.72;7354652;19;20470;-68
2023/04/23 11:17:38;;;;;;;0.10;0.10;;;;;;;16.71;70.08;99828.84;7354921;19;20099;-68
2023/04/23 11:20:09;;;;;;;0.10;0.10;;;;;;;16.97;70.02;99842.19;7359921;19;20090;-68
2023/04/23 11:22:49;;;;;;;0.10;0.10;;;;;;;17.38;70.19;99832.50;7362066;19;20014;-68
2023/04/23 11:25:25;;;;;;;0.08;0.08;;;;;;;17.73;69.90;99836.44;7362905;19;20013;-69
2023/04/23 11:27:53;;;;;;;0.10;0.10;;;;;;;17.93;68.56;99841.25;7355587;19;20014;-68
2023/04/23 11:30:21;;;;;;;;;;;;;;;18.27;69.80;99833.69;7358680;19;20494;-68
2023/04/23 11:32:52;;;;;;;0.03;0.03;;;;;;;18.41;67.84;99839.75;7362261;19;20324;-68
2023/04/23 11:35:20;;;;;;;0.03;0.03;;;;;;;18.63;67.04;99840.88;7354063;19;20020;-68